createdAt,value
2023-02-09T00:01:08.987Z,77.10
2023-02-09T00:03:37.099Z,68.17
2023-02-09T00:06:06.628Z,59.20
2023-02-09T00:08:34.851Z,67.50
2023-02-09T00:11:09.013Z,63.47
2023-02-09T00:13:37.199Z,61.50
2023-02-09T00:16:05.149Z,69.70
2023-02-09T00:18:33.971Z,73.78
2023-02-09T00:26:06.081Z,61.95
2023-02-09T00:28:33.955Z,57.77
2023-02-09T00:31:09.306Z,58.47
2023-02-09T00:33:37.900Z,78.80
2023-02-09T00:36:09.760Z,63.33
2023-02-09T00:38:37.158Z,60.30
2023-02-09T00:41:04.530Z,60.20
2023-02-09T00:43:32.529Z,54.70
2023-02-09T00:45:59.522Z,56.05
2023-02-09T00:48:26.768Z,55.93
2023-02-09T00:50:54.617Z,52.63
2023-02-09T00:53:22.764Z,63.03
2023-02-09T00:55:50.356Z,44.85
2023-02-09T00:58:18.094Z,56.22
2023-02-09T01:00:45.630Z,48.67
2023-02-09T01:03:13.096Z,56.15
2023-02-09T01:05:42.022Z,48.53
2023-02-09T01:08:09.232Z,46.10
2023-02-09T01:10:37.923Z,35.33
2023-02-09T01:13:05.547Z,73.57
2023-02-09T01:15:32.575Z,72.10
2023-02-09T01:18:00.045Z,69.97
2023-02-09T01:20:27.695Z,67.80
2023-02-09T01:22:54.701Z,57.17
2023-02-09T01:25:21.934Z,47.77
2023-02-09T01:27:48.819Z,53.13
2023-02-09T01:30:16.893Z,45.90
2023-02-09T01:32:44.101Z,52.85
2023-02-09T01:35:11.735Z,41.80
2023-02-09T01:37:38.723Z,51.93
2023-02-09T01:40:07.301Z,35.07
2023-02-09T01:42:34.237Z,45.58
2023-02-09T01:45:27.440Z,48.53
2023-02-09T01:48:01.680Z,48.60
2023-02-09T01:50:33.387Z,41.00
2023-02-09T01:53:01.605Z,40.20
2023-02-09T01:58:01.591Z,38.83
2023-02-09T02:00:28.621Z,42.63
2023-02-09T02:03:01.863Z,27.97
2023-02-09T02:05:31.513Z,40.23
2023-02-09T02:08:07.902Z,36.10
2023-02-09T02:10:35.034Z,46.03
2023-02-09T02:13:03.127Z,38.50
2023-02-09T02:15:40.859Z,48.47
2023-02-09T02:18:26.482Z,38.30
2023-02-09T02:21:30.772Z,47.83
2023-02-09T02:24:19.408Z,38.90
2023-02-09T02:27:04.937Z,36.20
2023-02-09T02:30:06.916Z,33.90
2023-02-09T02:32:48.655Z,43.73
2023-02-09T02:35:19.685Z,41.37
2023-02-09T02:38:11.535Z,34.60
2023-02-09T02:40:48.386Z,46.43
2023-02-09T02:43:21.018Z,40.83
2023-02-09T02:45:57.656Z,42.00
2023-02-09T02:48:44.372Z,41.17
2023-02-09T02:51:25.550Z,33.67
2023-02-09T02:53:57.053Z,40.63
2023-02-09T02:56:31.888Z,38.77
2023-02-09T02:59:03.235Z,40.67
2023-02-09T03:01:35.389Z,41.93
2023-02-09T03:04:05.009Z,48.60
2023-02-09T03:06:33.655Z,38.90
2023-02-09T03:09:00.552Z,42.63
2023-02-09T03:11:40.852Z,34.20
2023-02-09T03:14:39.853Z,41.20
2023-02-09T03:17:25.330Z,55.03
2023-02-09T03:20:04.857Z,34.27
2023-02-09T03:22:39.043Z,35.87
2023-02-09T03:25:35.356Z,32.27
2023-02-09T03:28:18.212Z,37.03
2023-02-09T03:30:48.973Z,34.80
2023-02-09T03:33:29.740Z,38.83
2023-02-09T03:35:59.188Z,27.13
2023-02-09T03:38:27.141Z,43.37
2023-02-09T03:40:54.750Z,37.13
2023-02-09T03:43:41.889Z,34.72
2023-02-09T03:46:09.988Z,34.73
2023-02-09T03:51:06.780Z,42.40
2023-02-09T03:53:37.453Z,70.87
2023-02-09T03:56:05.017Z,61.33
2023-02-09T03:58:32.364Z,65.85
2023-02-09T04:01:07.030Z,46.90
2023-02-09T04:03:34.865Z,41.47
2023-02-09T04:06:02.368Z,33.80
2023-02-09T04:08:30.486Z,40.97
2023-02-09T04:10:57.806Z,38.58
2023-02-09T04:13:25.719Z,32.70
2023-02-09T04:15:53.330Z,41.72
2023-02-09T04:18:20.672Z,36.58
2023-02-09T04:20:48.063Z,45.17
2023-02-09T04:23:15.500Z,39.42
2023-02-09T04:25:42.602Z,43.40
2023-02-09T04:28:09.935Z,59.13
2023-02-09T04:30:36.974Z,54.30
2023-02-09T04:33:04.242Z,64.70
2023-02-09T04:35:31.138Z,61.10
2023-02-09T04:37:58.356Z,56.13
2023-02-09T04:40:25.251Z,62.53
2023-02-09T04:42:52.503Z,120.93
2023-02-09T04:45:19.425Z,93.87
2023-02-09T04:47:46.659Z,90.17
2023-02-09T04:50:15.102Z,69.60
2023-02-09T04:52:42.307Z,71.13
2023-02-09T04:55:09.218Z,68.17
2023-02-09T04:57:55.256Z,90.53
2023-02-09T05:00:22.317Z,63.47
2023-02-09T05:02:49.560Z,77.47
2023-02-09T05:05:16.657Z,57.53
2023-02-09T05:07:43.854Z,74.97
2023-02-09T05:10:10.831Z,76.97
2023-02-09T05:12:37.992Z,61.53
2023-02-09T05:15:05.328Z,87.90
2023-02-09T05:17:33.225Z,58.78
2023-02-09T05:20:00.253Z,74.63
2023-02-09T05:22:27.562Z,75.93
2023-02-09T05:24:54.463Z,80.90
2023-02-09T05:27:21.680Z,73.17
2023-02-09T05:29:48.697Z,54.17
2023-02-09T05:32:15.997Z,69.63
2023-02-09T05:34:43.004Z,60.20
2023-02-09T05:37:10.204Z,48.20
2023-02-09T05:39:37.072Z,50.47
2023-02-09T05:42:16.696Z,53.17
2023-02-09T05:44:45.980Z,58.10
2023-02-09T05:47:14.596Z,49.53
2023-02-09T05:49:41.725Z,33.13
2023-02-09T05:52:09.186Z,35.63
2023-02-09T05:54:36.161Z,34.00
2023-02-09T05:57:06.288Z,36.03
2023-02-09T05:59:33.459Z,28.30
2023-02-09T06:02:01.191Z,31.03
2023-02-09T06:04:30.506Z,34.27
2023-02-09T06:06:57.800Z,26.40
2023-02-09T06:09:24.830Z,32.43
2023-02-09T06:11:52.157Z,39.27
2023-02-09T06:14:19.301Z,31.23
2023-02-09T06:16:46.852Z,40.30
2023-02-09T06:19:15.908Z,33.67
2023-02-09T06:21:43.905Z,41.43
2023-02-09T06:24:11.894Z,41.83
2023-02-09T06:26:40.292Z,44.80
2023-02-09T06:29:08.156Z,63.17
2023-02-09T06:31:36.241Z,78.38
2023-02-09T06:34:03.224Z,68.37
2023-02-09T06:36:30.402Z,80.90
2023-02-09T06:38:57.320Z,59.83
2023-02-09T06:41:24.559Z,44.33
2023-02-09T06:43:51.485Z,51.03
2023-02-09T06:46:18.936Z,45.57
2023-02-09T06:48:45.857Z,69.43
2023-02-09T06:51:15.822Z,50.37
2023-02-09T06:53:43.292Z,42.80
2023-02-09T06:56:12.249Z,39.23
2023-02-09T06:58:40.456Z,51.70
2023-02-09T07:01:10.881Z,36.75
2023-02-09T07:03:38.109Z,54.47
2023-02-09T07:06:13.580Z,52.67
2023-02-09T07:08:41.298Z,49.80
2023-02-09T07:11:10.661Z,42.07
2023-02-09T07:13:38.083Z,46.05
2023-02-09T07:16:07.348Z,44.67
2023-02-09T07:18:34.513Z,51.67
2023-02-09T07:21:10.511Z,45.70
2023-02-09T07:23:38.236Z,41.07
2023-02-09T07:26:10.761Z,37.50
2023-02-09T07:28:37.935Z,43.47
2023-02-09T07:31:07.953Z,56.27
2023-02-09T07:33:36.236Z,62.90
2023-02-09T07:36:05.925Z,44.40
2023-02-09T07:38:33.389Z,46.73
2023-02-09T07:41:01.943Z,46.90
2023-02-09T07:43:29.055Z,46.75
2023-02-09T07:46:00.623Z,42.17
2023-02-09T07:48:27.914Z,42.87
2023-02-09T07:50:55.823Z,42.07
2023-02-09T07:53:23.857Z,38.30
2023-02-09T07:55:51.362Z,31.30
2023-02-09T07:58:20.059Z,30.53
2023-02-09T08:00:49.125Z,36.42
2023-02-09T08:03:19.720Z,35.35
2023-02-09T08:05:55.428Z,48.90
2023-02-09T08:08:22.404Z,52.42
2023-02-09T08:10:50.346Z,41.97
2023-02-09T08:13:17.977Z,34.10
2023-02-09T08:16:01.060Z,35.00
2023-02-09T08:18:32.638Z,36.10
2023-02-09T08:21:00.114Z,46.88
2023-02-09T08:23:31.077Z,43.13
2023-02-09T08:26:02.298Z,49.28
2023-02-09T08:28:42.901Z,39.97
2023-02-09T08:31:15.619Z,38.83
2023-02-09T08:33:44.329Z,52.25
2023-02-09T08:36:12.599Z,48.22
2023-02-09T08:38:40.108Z,37.20
2023-02-09T08:41:09.383Z,38.45
2023-02-09T08:43:37.094Z,42.30
2023-02-09T08:46:13.051Z,42.40
2023-02-09T08:48:42.447Z,41.63
2023-02-09T08:51:11.135Z,40.10
2023-02-09T08:53:38.348Z,42.50
2023-02-09T08:56:06.200Z,38.45
2023-02-09T08:58:33.598Z,54.75
2023-02-09T09:01:00.991Z,45.40
2023-02-09T09:03:31.572Z,43.45
2023-02-09T09:06:07.037Z,42.70
2023-02-09T09:08:35.624Z,39.85
2023-02-09T09:11:03.328Z,35.75
2023-02-09T09:13:30.386Z,36.13
2023-02-09T09:15:57.700Z,31.92
2023-02-09T09:18:25.984Z,40.05
2023-02-09T09:20:53.416Z,37.10
2023-02-09T09:23:21.382Z,37.50
2023-02-09T09:25:49.052Z,35.50
2023-02-09T09:28:16.810Z,44.43
2023-02-09T09:30:44.170Z,48.77
2023-02-09T09:33:11.246Z,49.60
2023-02-09T09:35:38.539Z,35.80
2023-02-09T09:38:05.503Z,39.17
2023-02-09T09:40:35.672Z,40.07
2023-02-09T09:43:05.818Z,39.53
2023-02-09T09:45:38.074Z,44.50
2023-02-09T09:48:07.265Z,33.95
2023-02-09T09:50:41.392Z,40.97
2023-02-09T09:53:25.391Z,45.17
2023-02-09T09:55:56.626Z,29.48
2023-02-09T09:58:23.952Z,35.38
2023-02-09T10:00:52.363Z,33.35
2023-02-09T10:03:22.327Z,29.20
2023-02-09T10:06:01.857Z,44.45
2023-02-09T10:11:11.937Z,31.05
2023-02-09T10:13:52.555Z,34.67
2023-02-09T10:16:25.484Z,32.75
2023-02-09T10:18:54.651Z,25.75
2023-02-09T10:24:02.910Z,18.60
2023-02-09T10:26:37.878Z,17.38
2023-02-09T10:29:11.322Z,16.42
2023-02-09T10:31:47.230Z,13.02
2023-02-09T10:34:23.051Z,14.00
2023-02-09T10:36:55.818Z,12.10
2023-02-09T10:39:35.807Z,16.42
2023-02-09T10:42:37.667Z,11.57
2023-02-09T10:45:18.037Z,15.52
2023-02-09T10:47:57.859Z,10.25
2023-02-09T10:50:24.785Z,12.20
2023-02-09T10:53:02.335Z,15.00
2023-02-09T10:55:42.436Z,11.00
2023-02-09T10:58:09.528Z,11.50
2023-02-09T11:00:42.569Z,10.88
2023-02-09T11:03:19.138Z,11.45
2023-02-09T11:05:47.883Z,10.95
2023-02-09T11:08:23.446Z,11.57
2023-02-09T11:11:15.712Z,12.18
2023-02-09T11:13:43.003Z,17.00
2023-02-09T11:16:22.087Z,13.75
2023-02-09T11:18:59.981Z,13.88
2023-02-09T11:21:51.788Z,12.05
2023-02-09T11:24:48.068Z,11.98
2023-02-09T11:27:26.950Z,13.65
2023-02-09T11:30:08.817Z,13.60
2023-02-09T11:32:51.859Z,16.80
2023-02-09T11:35:22.503Z,15.73
2023-02-09T11:38:03.372Z,16.77
2023-02-09T11:40:37.691Z,16.73
2023-02-09T11:43:10.540Z,17.13
2023-02-09T11:45:51.214Z,14.70
2023-02-09T11:48:22.625Z,14.07
2023-02-09T11:50:49.967Z,16.58
2023-02-09T11:53:39.631Z,15.70
2023-02-09T11:56:11.029Z,12.65
2023-02-09T11:58:46.986Z,21.63
2023-02-09T12:01:26.225Z,42.42
2023-02-09T12:04:17.968Z,15.95
2023-02-09T12:06:49.717Z,26.75
2023-02-09T12:09:28.824Z,15.75
2023-02-09T12:12:01.780Z,21.00
2023-02-09T12:14:45.542Z,27.90
2023-02-09T12:17:22.175Z,16.77
2023-02-09T12:20:00.712Z,14.35
2023-02-09T12:22:34.148Z,14.80
2023-02-09T12:25:36.151Z,15.70
2023-02-09T12:28:09.425Z,12.15
2023-02-09T12:30:42.274Z,16.00
2023-02-09T12:33:24.780Z,14.82
2023-02-09T12:36:09.907Z,15.00
2023-02-09T12:39:04.565Z,17.02
2023-02-09T12:41:52.036Z,16.52
2023-02-09T12:44:19.902Z,12.90
2023-02-09T12:46:46.924Z,17.00
2023-02-09T12:49:14.025Z,12.88
2023-02-09T12:51:53.008Z,13.93
2023-02-09T12:54:39.087Z,15.57
2023-02-09T12:57:15.263Z,17.92
2023-02-09T12:59:59.740Z,16.20
2023-02-09T13:02:39.574Z,14.35
2023-02-09T13:05:15.477Z,16.20
2023-02-09T13:08:00.405Z,16.00
2023-02-09T13:10:45.813Z,13.35
2023-02-09T13:13:12.678Z,12.05
2023-02-09T13:16:25.016Z,15.02
2023-02-09T13:19:24.835Z,14.32
2023-02-09T13:21:57.933Z,16.15
2023-02-09T13:24:45.002Z,12.25
2023-02-09T13:27:20.550Z,17.20
2023-02-09T13:29:53.670Z,15.35
2023-02-09T13:32:26.791Z,16.35
2023-02-09T13:35:28.796Z,15.05
2023-02-09T13:38:00.736Z,15.50
2023-02-09T13:40:31.108Z,14.82
2023-02-09T13:43:04.395Z,14.05
2023-02-09T13:45:31.876Z,12.35
2023-02-09T13:48:00.698Z,14.55
2023-02-09T13:50:29.373Z,14.73
2023-02-09T13:53:10.012Z,14.68
2023-02-09T13:55:40.068Z,12.32
2023-02-09T13:58:14.580Z,13.20
2023-02-09T14:00:48.382Z,11.07
2023-02-09T14:03:21.017Z,13.32
2023-02-09T14:05:51.727Z,15.40
2023-02-09T14:08:20.191Z,16.50
2023-02-09T14:10:57.821Z,13.82
2023-02-09T14:13:33.882Z,17.92
2023-02-09T14:16:06.946Z,18.63
2023-02-09T14:18:45.407Z,23.63
2023-02-09T14:21:13.535Z,30.40
2023-02-09T14:23:46.654Z,24.98
2023-02-09T14:26:28.579Z,28.00
2023-02-09T14:29:18.159Z,20.67
2023-02-09T14:31:48.022Z,23.00
2023-02-09T14:34:35.370Z,26.58
2023-02-09T14:37:11.345Z,33.10
2023-02-09T14:39:57.040Z,34.80
2023-02-09T14:42:24.105Z,24.98
2023-02-09T14:45:13.865Z,26.80
2023-02-09T14:47:44.000Z,30.23
2023-02-09T14:50:18.663Z,36.22
2023-02-09T14:52:48.068Z,37.08
2023-02-09T14:55:19.379Z,40.40
2023-02-09T14:57:46.968Z,49.85
2023-02-09T15:00:19.147Z,40.60
2023-02-09T15:02:46.741Z,37.30
2023-02-09T15:05:14.443Z,43.50
2023-02-09T15:07:45.452Z,30.37
2023-02-09T15:10:29.409Z,25.93
2023-02-09T15:12:57.559Z,27.80
2023-02-09T15:15:25.923Z,23.75
2023-02-09T15:17:55.286Z,25.33
2023-02-09T15:20:26.562Z,33.40
2023-02-09T15:22:54.588Z,15.97
2023-02-09T15:25:23.312Z,47.95
2023-02-09T15:27:57.727Z,27.77
2023-02-09T15:30:33.585Z,94.57
2023-02-09T15:33:00.976Z,157.43
2023-02-09T15:35:29.870Z,98.47
2023-02-09T15:37:59.798Z,80.40
2023-02-09T15:40:50.580Z,225.10
2023-02-09T15:43:41.321Z,138.23
2023-02-09T15:46:28.400Z,170.07
2023-02-09T15:48:55.536Z,175.17
2023-02-09T15:51:25.320Z,170.40
2023-02-09T15:53:57.709Z,124.17
2023-02-09T15:56:24.834Z,141.43
2023-02-09T15:58:51.863Z,229.13
2023-02-09T16:01:19.353Z,258.10
2023-02-09T16:03:46.414Z,182.00
2023-02-09T16:06:20.609Z,227.23
2023-02-09T16:08:48.990Z,196.87
2023-02-09T16:11:26.818Z,174.63
2023-02-09T16:13:54.561Z,232.63
2023-02-09T16:16:24.783Z,327.47
2023-02-09T16:18:52.007Z,373.30
2023-02-09T16:21:26.536Z,335.73
2023-02-09T16:23:56.141Z,317.50
2023-02-09T16:26:24.744Z,434.23
2023-02-09T16:28:51.974Z,397.52
2023-02-09T16:31:19.484Z,363.17
2023-02-09T16:33:46.828Z,308.07
2023-02-09T16:36:19.842Z,376.30
2023-02-09T16:38:47.133Z,352.07
2023-02-09T16:41:35.584Z,370.27
2023-02-09T16:44:14.144Z,316.90
2023-02-09T16:49:19.682Z,1100.73
2023-02-09T16:51:46.844Z,583.20
2023-02-09T16:54:13.796Z,306.37
2023-02-09T16:56:53.619Z,444.43
2023-02-09T16:59:21.235Z,290.53
2023-02-09T17:01:49.143Z,252.73
2023-02-09T17:04:16.226Z,280.90
2023-02-09T17:06:45.064Z,620.93
2023-02-09T17:09:15.756Z,248.57
2023-02-09T17:11:43.093Z,390.60
2023-02-09T17:14:11.284Z,175.50
2023-02-09T17:16:41.719Z,423.98
2023-02-09T17:19:14.776Z,484.37
2023-02-09T17:21:42.404Z,439.73
2023-02-09T17:24:18.811Z,395.80
2023-02-09T17:26:46.052Z,434.70
2023-02-09T17:29:13.857Z,363.23
2023-02-09T17:31:52.823Z,306.27
2023-02-09T17:34:22.088Z,165.80
2023-02-09T17:36:49.272Z,75.73
2023-02-09T17:39:18.786Z,58.07
2023-02-09T17:41:48.603Z,49.27
2023-02-09T17:44:39.030Z,47.97
2023-02-09T17:47:15.521Z,61.40
2023-02-09T17:49:42.581Z,54.70
2023-02-09T17:52:18.015Z,72.67
2023-02-09T17:54:45.652Z,107.50
2023-02-09T17:57:15.141Z,125.80
2023-02-09T17:59:42.346Z,142.40
2023-02-09T18:02:15.975Z,178.23
2023-02-09T18:04:43.710Z,159.73
2023-02-09T18:07:11.307Z,93.68
2023-02-09T18:09:38.181Z,106.20
2023-02-09T18:12:20.530Z,95.10
2023-02-09T18:14:47.541Z,103.83
2023-02-09T18:17:14.753Z,98.77
2023-02-09T18:19:41.657Z,84.77
2023-02-09T18:22:13.944Z,80.57
2023-02-09T18:24:41.905Z,72.80
2023-02-09T18:27:16.718Z,90.78
2023-02-09T18:29:43.834Z,83.03
2023-02-09T18:32:15.153Z,79.03
2023-02-09T18:34:42.022Z,67.93
2023-02-09T18:37:09.312Z,76.67
2023-02-09T18:39:38.661Z,70.27
2023-02-09T18:42:06.036Z,93.80
2023-02-09T18:44:33.297Z,75.53
2023-02-09T18:47:00.685Z,77.17
2023-02-09T18:49:28.184Z,85.00
2023-02-09T18:51:57.056Z,76.63
2023-02-09T18:54:24.037Z,89.65
2023-02-09T18:56:52.963Z,81.57
2023-02-09T18:59:20.102Z,87.10
2023-02-09T19:01:47.388Z,84.33
2023-02-09T19:04:14.329Z,70.80
2023-02-09T19:06:41.593Z,59.17
2023-02-09T19:09:08.462Z,65.57
2023-02-09T19:11:35.681Z,46.13
2023-02-09T19:14:21.497Z,74.73
2023-02-09T19:16:48.826Z,73.43
2023-02-09T19:19:16.282Z,71.33
2023-02-09T19:21:43.507Z,74.77
2023-02-09T19:24:10.403Z,62.93
2023-02-09T19:26:37.605Z,73.83
2023-02-09T19:29:04.676Z,59.27
2023-02-09T19:31:31.902Z,54.33
2023-02-09T19:33:59.151Z,62.53
2023-02-09T19:36:28.062Z,76.17
2023-02-09T19:38:55.963Z,51.97
2023-02-09T19:41:25.462Z,62.88
2023-02-09T19:43:59.108Z,60.30
2023-02-09T19:46:26.387Z,63.43
2023-02-09T19:48:56.062Z,44.30
2023-02-09T19:51:23.535Z,47.50
2023-02-09T19:53:50.972Z,59.20
2023-02-09T19:56:20.825Z,50.47
2023-02-09T19:58:47.741Z,33.10
2023-02-09T20:01:16.004Z,56.63
2023-02-09T20:03:42.979Z,48.87
2023-02-09T20:06:13.092Z,46.93
2023-02-09T20:08:40.896Z,56.77
2023-02-09T20:11:10.779Z,65.47
2023-02-09T20:13:37.669Z,55.10
2023-02-09T20:16:09.941Z,61.37
2023-02-09T20:18:37.362Z,63.20
2023-02-09T20:21:08.704Z,48.80
2023-02-09T20:23:37.341Z,43.10
2023-02-09T20:26:13.483Z,36.47
2023-02-09T20:28:40.672Z,50.77
2023-02-09T20:31:08.945Z,43.77
2023-02-09T20:33:38.558Z,46.63
2023-02-09T20:36:08.339Z,47.67
2023-02-09T20:38:37.231Z,45.67
2023-02-09T20:41:13.181Z,47.80
2023-02-09T20:43:59.264Z,54.07
2023-02-09T20:46:47.781Z,35.43
2023-02-09T20:49:16.989Z,45.80
2023-02-09T20:51:45.829Z,38.97
2023-02-09T20:54:13.264Z,32.10
2023-02-09T20:56:41.295Z,41.00
2023-02-09T20:59:08.218Z,31.77
2023-02-09T21:01:37.869Z,44.87
2023-02-09T21:04:07.441Z,37.43
2023-02-09T21:06:37.211Z,31.87
2023-02-09T21:09:05.990Z,28.67
2023-02-09T21:12:00.679Z,18.20
2023-02-09T21:14:41.842Z,35.60
2023-02-09T21:17:09.708Z,32.37
2023-02-09T21:19:36.575Z,32.50
2023-02-09T21:22:03.970Z,33.37
2023-02-09T21:24:40.003Z,32.20
2023-02-09T21:27:08.215Z,33.60
2023-02-09T21:29:35.968Z,32.60
2023-02-09T21:32:20.252Z,40.88
2023-02-09T21:34:52.922Z,30.50
2023-02-09T21:37:20.215Z,35.27
2023-02-09T21:39:56.464Z,35.23
2023-02-09T21:42:26.433Z,37.00
2023-02-09T21:44:54.992Z,28.23
2023-02-09T21:50:09.516Z,27.87
2023-02-09T21:52:36.846Z,27.10
2023-02-09T21:55:07.502Z,31.47
2023-02-09T21:57:38.320Z,25.97
2023-02-09T22:00:17.948Z,22.55
2023-02-09T22:02:45.770Z,26.70
2023-02-09T22:05:12.809Z,23.80
2023-02-09T22:07:41.471Z,28.07
2023-02-09T22:10:18.252Z,20.90
2023-02-09T22:12:52.895Z,23.63
2023-02-09T22:15:19.723Z,32.07
2023-02-09T22:17:48.405Z,29.37
2023-02-09T22:20:15.630Z,20.98
2023-02-09T22:22:45.428Z,31.47
2023-02-09T22:25:12.437Z,31.27
2023-02-09T22:27:39.612Z,42.77
2023-02-09T22:30:06.782Z,32.43
2023-02-09T22:32:33.920Z,20.93
2023-02-09T22:35:00.834Z,25.27
2023-02-09T22:37:27.972Z,23.60
2023-02-09T22:39:54.891Z,23.20
2023-02-09T22:42:22.038Z,27.20
2023-02-09T22:44:48.868Z,20.10
2023-02-09T22:47:16.005Z,27.90
2023-02-09T22:49:45.477Z,24.13
2023-02-09T22:52:12.827Z,17.70
2023-02-09T22:54:39.751Z,16.93
2023-02-09T22:57:06.875Z,27.03
2023-02-09T22:59:36.245Z,15.17
2023-02-09T23:02:04.133Z,14.77
2023-02-09T23:04:32.154Z,26.77
2023-02-09T23:06:59.902Z,23.50
2023-02-09T23:09:26.988Z,21.83
2023-02-09T23:11:54.317Z,21.67
2023-02-09T23:14:21.255Z,17.20
2023-02-09T23:16:48.469Z,8.43
2023-02-09T23:19:20.329Z,22.43
2023-02-09T23:21:49.431Z,22.90
2023-02-09T23:24:18.590Z,29.33
2023-02-09T23:26:45.843Z,22.63
2023-02-09T23:29:14.598Z,26.43
2023-02-09T23:31:42.720Z,25.27
2023-02-09T23:34:14.426Z,29.97
2023-02-09T23:36:42.075Z,18.43
2023-02-09T23:39:09.139Z,29.30
2023-02-09T23:41:36.377Z,28.50
2023-02-09T23:44:03.995Z,25.33
2023-02-09T23:46:31.264Z,24.45
2023-02-09T23:48:58.776Z,25.17
2023-02-09T23:51:31.345Z,20.27
2023-02-09T23:54:01.153Z,24.93
2023-02-09T23:56:31.462Z,14.50
2023-02-09T23:58:58.346Z,18.27
